This is the latest recevied weather packets stored in our database for station/object KI5NYZ. If no packets are shown the sender has not sent any weather packets the latest 10 day(s).
| Time | Temp. | Humidity | Pressure | Rain* | Wind** | Luminosity | Snow |
|---|---|---|---|---|---|---|---|
| 1777203320 | 17.78° C | 21% | 1007.7 hPa | 0 mm | - | 0 W/m² | - |
| 1777202726 | 17.78° C | 21% | 1007.6 hPa | 0 mm | - | 0 W/m² | - |
| 1777202141 | 18.33° C | 20% | 1007.6 hPa | 0 mm | - | 0 W/m² | - |
| 1777200320 | 19.44° C | 19% | 1007.3 hPa | 0 mm | - | 0 W/m² | - |
| 1777184120 | 21.11° C | 19% | 1007 hPa | 0 mm | - | 0 W/m² | - |
| 1777173921 | 23.33° C | 14% | 1006.8 hPa | 0 mm | - | 0 W/m² | - |
| 1777166122 | 28.89° C | 10% | 1005 hPa | 0 mm | - | 12 W/m² | - |
| 1777165523 | 29.44° C | 9% | 1005 hPa | 0 mm | - | 29 W/m² | - |
| 1777160719 | 31.67° C | 8% | 1004.6 hPa | 0 mm | - | 166 W/m² | - |
| 1777145740 | 31.11° C | 9% | 1007.3 hPa | 0 mm | - | 1006 W/m² | - |
| 1777143321 | 31.11° C | 9% | 1007.7 hPa | 0 mm | - | 826 W/m² | - |
| 1777140319 | 30° C | 10% | 1008.1 hPa | 0 mm | - | 1040 W/m² | - |
| 1777132521 | 27.78° C | 10% | 1008.5 hPa | 0.25 mm | - | 520 W/m² | - |
| 1777131922 | 27.22° C | 10% | 1008.5 hPa | 0.25 mm | - | 438 W/m² | - |
| 1777129519 | 25.56° C | 12% | 1008.4 hPa | 0 mm | - | 160 W/m² | - |
| 1777128359 | 25° C | 13% | 1008.4 hPa | 0 mm | - | 104 W/m² | - |
| 1777125919 | 21.67° C | 18% | 1008.2 hPa | 0 mm | - | 67 W/m² | - |
| 1777121143 | 12.78° C | 30% | 1007.7 hPa | 0 mm | - | 32 W/m² | - |
| 1777118723 | 11.11° C | 34% | 1007.1 hPa | 0 mm | - | 1 W/m² | - |
| 1777116918 | 11.67° C | 31% | 1007 hPa | 0 mm | - | 0 W/m² | - |
| 1777116324 | 11.67° C | 31% | 1006.9 hPa | 0 mm | - | 0 W/m² | - |
| 1777114519 | 11.11° C | 32% | 1006.8 hPa | 0 mm | - | 0 W/m² | - |
| 1777113920 | 11.67° C | 33% | 1006.8 hPa | 0 mm | - | 0 W/m² | - |
| 1777112121 | 12.78° C | 29% | 1006.5 hPa | 0 mm | - | 0 W/m² | - |
| 1777104920 | 14.44° C | 25% | 1006.6 hPa | 0 mm | - | 0 W/m² | - |
* Rain latest hour (hover to see other rain measurements)
** Current wind speed in m/s (hover to see current wind gust speed)